sensor_id;sensor_type;location;lat;lon;timestamp;P1;durP1;ratioP1;P2;durP2;ratioP2
8319;SDS011;4197;42.130;24.746;2023-12-14T00:01:49;81.83;;;48.87;;
8319;SDS011;4197;42.130;24.746;2023-12-14T00:04:20;96.47;;;53.67;;
8319;SDS011;4197;42.130;24.746;2023-12-14T00:06:49;83.83;;;49.57;;
8319;SDS011;4197;42.130;24.746;2023-12-14T00:09:17;78.90;;;46.77;;
8319;SDS011;4197;42.130;24.746;2023-12-14T00:11:45;83.40;;;48.77;;
8319;SDS011;4197;42.130;24.746;2023-12-14T00:14:14;85.03;;;50.63;;
8319;SDS011;4197;42.130;24.746;2023-12-14T00:16:42;87.20;;;49.17;;
8319;SDS011;4197;42.130;24.746;2023-12-14T00:19:11;94.53;;;53.97;;
8319;SDS011;4197;42.130;24.746;2023-12-14T00:21:41;90.20;;;51.87;;
8319;SDS011;4197;42.130;24.746;2023-12-14T00:24:09;87.03;;;51.27;;
8319;SDS011;4197;42.130;24.746;2023-12-14T00:26:37;90.07;;;51.73;;
8319;SDS011;4197;42.130;24.746;2023-12-14T00:29:06;97.67;;;52.50;;
8319;SDS011;4197;42.130;24.746;2023-12-14T00:31:34;93.03;;;50.47;;
8319;SDS011;4197;42.130;24.746;2023-12-14T00:34:02;94.47;;;53.00;;
8319;SDS011;4197;42.130;24.746;2023-12-14T00:36:31;96.57;;;52.97;;
8319;SDS011;4197;42.130;24.746;2023-12-14T00:39:01;94.80;;;49.93;;
8319;SDS011;4197;42.130;24.746;2023-12-14T00:41:29;94.17;;;50.67;;
8319;SDS011;4197;42.130;24.746;2023-12-14T00:43:57;93.77;;;51.70;;
8319;SDS011;4197;42.130;24.746;2023-12-14T00:46:26;87.50;;;49.80;;
8319;SDS011;4197;42.130;24.746;2023-12-14T00:48:54;92.30;;;52.60;;
8319;SDS011;4197;42.130;24.746;2023-12-14T00:51:23;92.03;;;51.37;;
8319;SDS011;4197;42.130;24.746;2023-12-14T00:53:52;88.87;;;52.07;;
8319;SDS011;4197;42.130;24.746;2023-12-14T00:56:22;83.03;;;49.93;;
8319;SDS011;4197;42.130;24.746;2023-12-14T00:58:50;93.10;;;51.80;;
8319;SDS011;4197;42.130;24.746;2023-12-14T01:01:19;87.67;;;51.10;;
8319;SDS011;4197;42.130;24.746;2023-12-14T01:03:47;95.03;;;50.63;;
8319;SDS011;4197;42.130;24.746;2023-12-14T01:06:15;84.50;;;50.43;;
8319;SDS011;4197;42.130;24.746;2023-12-14T01:08:44;93.77;;;50.07;;
8319;SDS011;4197;42.130;24.746;2023-12-14T01:11:12;90.83;;;54.67;;
8319;SDS011;4197;42.130;24.746;2023-12-14T01:13:42;90.87;;;51.33;;
8319;SDS011;4197;42.130;24.746;2023-12-14T01:16:10;91.93;;;51.00;;
8319;SDS011;4197;42.130;24.746;2023-12-14T01:18:40;96.17;;;51.97;;
8319;SDS011;4197;42.130;24.746;2023-12-14T01:21:08;87.23;;;49.00;;
8319;SDS011;4197;42.130;24.746;2023-12-14T01:23:37;84.93;;;50.33;;
8319;SDS011;4197;42.130;24.746;2023-12-14T01:26:06;82.33;;;48.53;;
8319;SDS011;4197;42.130;24.746;2023-12-14T01:28:34;91.70;;;50.17;;
8319;SDS011;4197;42.130;24.746;2023-12-14T01:31:04;96.30;;;53.60;;
8319;SDS011;4197;42.130;24.746;2023-12-14T01:33:32;87.33;;;50.97;;
8319;SDS011;4197;42.130;24.746;2023-12-14T01:36:01;93.40;;;51.50;;
8319;SDS011;4197;42.130;24.746;2023-12-14T01:38:29;97.13;;;51.37;;
8319;SDS011;4197;42.130;24.746;2023-12-14T01:40:57;94.53;;;50.07;;
8319;SDS011;4197;42.130;24.746;2023-12-14T01:43:26;98.20;;;52.80;;
8319;SDS011;4197;42.130;24.746;2023-12-14T01:45:54;86.47;;;50.63;;
8319;SDS011;4197;42.130;24.746;2023-12-14T01:48:24;89.47;;;50.33;;
8319;SDS011;4197;42.130;24.746;2023-12-14T01:50:52;92.23;;;51.77;;
8319;SDS011;4197;42.130;24.746;2023-12-14T01:53:22;86.30;;;50.83;;
8319;SDS011;4197;42.130;24.746;2023-12-14T01:55:50;92.23;;;51.60;;
8319;SDS011;4197;42.130;24.746;2023-12-14T01:58:18;93.50;;;52.73;;
8319;SDS011;4197;42.130;24.746;2023-12-14T02:00:48;94.30;;;49.63;;
8319;SDS011;4197;42.130;24.746;2023-12-14T02:03:24;87.90;;;52.70;;
8319;SDS011;4197;42.130;24.746;2023-12-14T02:05:53;92.37;;;50.87;;
8319;SDS011;4197;42.130;24.746;2023-12-14T02:08:22;88.00;;;50.87;;
8319;SDS011;4197;42.130;24.746;2023-12-14T02:10:51;91.20;;;51.37;;
8319;SDS011;4197;42.130;24.746;2023-12-14T02:13:19;93.77;;;51.20;;
8319;SDS011;4197;42.130;24.746;2023-12-14T02:15:48;97.83;;;53.57;;
8319;SDS011;4197;42.130;24.746;2023-12-14T02:18:16;86.67;;;51.60;;
8319;SDS011;4197;42.130;24.746;2023-12-14T02:20:46;91.00;;;50.67;;
8319;SDS011;4197;42.130;24.746;2023-12-14T02:23:16;86.57;;;50.87;;
8319;SDS011;4197;42.130;24.746;2023-12-14T02:25:44;83.70;;;49.67;;
8319;SDS011;4197;42.130;24.746;2023-12-14T02:28:12;79.27;;;47.47;;
8319;SDS011;4197;42.130;24.746;2023-12-14T02:30:41;74.03;;;45.53;;
8319;SDS011;4197;42.130;24.746;2023-12-14T02:33:09;71.03;;;44.17;;
8319;SDS011;4197;42.130;24.746;2023-12-14T02:35:37;73.03;;;45.67;;
8319;SDS011;4197;42.130;24.746;2023-12-14T02:38:06;72.03;;;43.83;;
8319;SDS011;4197;42.130;24.746;2023-12-14T02:40:36;74.03;;;45.87;;
8319;SDS011;4197;42.130;24.746;2023-12-14T02:43:04;88.33;;;50.03;;
8319;SDS011;4197;42.130;24.746;2023-12-14T02:45:32;73.53;;;45.63;;
8319;SDS011;4197;42.130;24.746;2023-12-14T02:48:01;76.13;;;46.57;;
8319;SDS011;4197;42.130;24.746;2023-12-14T02:50:30;86.20;;;48.60;;
8319;SDS011;4197;42.130;24.746;2023-12-14T02:52:58;70.87;;;41.60;;
8319;SDS011;4197;42.130;24.746;2023-12-14T02:55:26;81.17;;;45.07;;
8319;SDS011;4197;42.130;24.746;2023-12-14T02:57:56;67.83;;;43.73;;
8319;SDS011;4197;42.130;24.746;2023-12-14T03:00:24;72.33;;;43.97;;
8319;SDS011;4197;42.130;24.746;2023-12-14T03:02:53;64.43;;;40.50;;
8319;SDS011;4197;42.130;24.746;2023-12-14T03:05:21;66.07;;;42.50;;
8319;SDS011;4197;42.130;24.746;2023-12-14T03:07:50;68.83;;;42.60;;
8319;SDS011;4197;42.130;24.746;2023-12-14T03:10:19;68.07;;;39.63;;
8319;SDS011;4197;42.130;24.746;2023-12-14T03:12:47;62.30;;;40.33;;
8319;SDS011;4197;42.130;24.746;2023-12-14T03:15:17;66.17;;;38.10;;
8319;SDS011;4197;42.130;24.746;2023-12-14T03:17:46;68.23;;;40.80;;
8319;SDS011;4197;42.130;24.746;2023-12-14T03:20:14;67.60;;;40.93;;
8319;SDS011;4197;42.130;24.746;2023-12-14T03:22:43;73.67;;;41.93;;
8319;SDS011;4197;42.130;24.746;2023-12-14T03:25:11;71.27;;;41.53;;
8319;SDS011;4197;42.130;24.746;2023-12-14T03:27:39;62.63;;;37.57;;
8319;SDS011;4197;42.130;24.746;2023-12-14T03:30:08;62.90;;;38.20;;
8319;SDS011;4197;42.130;24.746;2023-12-14T03:32:39;61.60;;;36.93;;
8319;SDS011;4197;42.130;24.746;2023-12-14T03:35:08;65.77;;;38.53;;
8319;SDS011;4197;42.130;24.746;2023-12-14T03:37:36;61.73;;;39.30;;
8319;SDS011;4197;42.130;24.746;2023-12-14T03:40:05;63.40;;;38.93;;
8319;SDS011;4197;42.130;24.746;2023-12-14T03:42:34;67.97;;;38.23;;
8319;SDS011;4197;42.130;24.746;2023-12-14T03:45:03;72.87;;;41.90;;
8319;SDS011;4197;42.130;24.746;2023-12-14T03:47:32;68.30;;;42.00;;
8319;SDS011;4197;42.130;24.746;2023-12-14T03:50:02;64.33;;;40.07;;
8319;SDS011;4197;42.130;24.746;2023-12-14T03:52:31;64.30;;;39.03;;
8319;SDS011;4197;42.130;24.746;2023-12-14T03:55:00;61.57;;;37.67;;
8319;SDS011;4197;42.130;24.746;2023-12-14T03:57:29;65.50;;;40.23;;
8319;SDS011;4197;42.130;24.746;2023-12-14T03:59:57;61.13;;;39.13;;
8319;SDS011;4197;42.130;24.746;2023-12-14T04:02:25;64.63;;;42.03;;
8319;SDS011;4197;42.130;24.746;2023-12-14T04:04:54;66.83;;;40.70;;
8319;SDS011;4197;42.130;24.746;2023-12-14T04:07:24;82.60;;;46.47;;
8319;SDS011;4197;42.130;24.746;2023-12-14T04:09:52;81.47;;;46.40;;
8319;SDS011;4197;42.130;24.746;2023-12-14T04:12:21;94.10;;;52.10;;
8319;SDS011;4197;42.130;24.746;2023-12-14T04:14:49;67.03;;;41.07;;
8319;SDS011;4197;42.130;24.746;2023-12-14T04:17:18;80.83;;;46.27;;
8319;SDS011;4197;42.130;24.746;2023-12-14T04:19:46;77.80;;;41.43;;
8319;SDS011;4197;42.130;24.746;2023-12-14T04:22:14;75.17;;;41.27;;
8319;SDS011;4197;42.130;24.746;2023-12-14T04:24:44;68.97;;;38.93;;
8319;SDS011;4197;42.130;24.746;2023-12-14T04:27:12;68.57;;;39.83;;
8319;SDS011;4197;42.130;24.746;2023-12-14T04:29:42;62.17;;;37.57;;
8319;SDS011;4197;42.130;24.746;2023-12-14T04:32:10;53.63;;;34.73;;
8319;SDS011;4197;42.130;24.746;2023-12-14T04:34:39;52.87;;;34.23;;
8319;SDS011;4197;42.130;24.746;2023-12-14T04:37:07;60.27;;;35.87;;
8319;SDS011;4197;42.130;24.746;2023-12-14T04:39:35;50.33;;;32.50;;
8319;SDS011;4197;42.130;24.746;2023-12-14T04:42:05;51.43;;;33.70;;
8319;SDS011;4197;42.130;24.746;2023-12-14T04:44:34;53.07;;;32.20;;
8319;SDS011;4197;42.130;24.746;2023-12-14T04:47:02;50.37;;;32.70;;
8319;SDS011;4197;42.130;24.746;2023-12-14T04:49:31;52.20;;;31.63;;
8319;SDS011;4197;42.130;24.746;2023-12-14T04:51:59;52.73;;;32.10;;
8319;SDS011;4197;42.130;24.746;2023-12-14T04:54:28;56.43;;;37.00;;
8319;SDS011;4197;42.130;24.746;2023-12-14T04:56:56;66.43;;;38.87;;
8319;SDS011;4197;42.130;24.746;2023-12-14T04:59:26;60.07;;;36.57;;
8319;SDS011;4197;42.130;24.746;2023-12-14T05:01:55;66.50;;;39.30;;
8319;SDS011;4197;42.130;24.746;2023-12-14T05:04:23;54.07;;;33.87;;
8319;SDS011;4197;42.130;24.746;2023-12-14T05:06:51;50.37;;;33.93;;
8319;SDS011;4197;42.130;24.746;2023-12-14T05:09:20;62.63;;;38.03;;
8319;SDS011;4197;42.130;24.746;2023-12-14T05:11:49;60.47;;;36.23;;
8319;SDS011;4197;42.130;24.746;2023-12-14T05:14:18;61.57;;;37.60;;
8319;SDS011;4197;42.130;24.746;2023-12-14T05:16:47;67.97;;;37.80;;
8319;SDS011;4197;42.130;24.746;2023-12-14T05:19:16;55.93;;;34.67;;
8319;SDS011;4197;42.130;24.746;2023-12-14T05:21:45;57.80;;;35.87;;
8319;SDS011;4197;42.130;24.746;2023-12-14T05:24:13;59.60;;;35.97;;
8319;SDS011;4197;42.130;24.746;2023-12-14T05:26:41;63.47;;;38.50;;
8319;SDS011;4197;42.130;24.746;2023-12-14T05:29:10;58.67;;;37.57;;
8319;SDS011;4197;42.130;24.746;2023-12-14T05:31:38;57.30;;;36.40;;
8319;SDS011;4197;42.130;24.746;2023-12-14T05:34:08;61.67;;;37.57;;
8319;SDS011;4197;42.130;24.746;2023-12-14T05:36:36;63.33;;;37.83;;
8319;SDS011;4197;42.130;24.746;2023-12-14T05:39:05;70.90;;;39.67;;
8319;SDS011;4197;42.130;24.746;2023-12-14T05:41:37;63.00;;;38.37;;
8319;SDS011;4197;42.130;24.746;2023-12-14T05:44:07;68.30;;;41.57;;
8319;SDS011;4197;42.130;24.746;2023-12-14T05:46:36;73.73;;;41.33;;
8319;SDS011;4197;42.130;24.746;2023-12-14T05:49:04;60.97;;;38.63;;
8319;SDS011;4197;42.130;24.746;2023-12-14T05:51:34;70.97;;;42.33;;
8319;SDS011;4197;42.130;24.746;2023-12-14T05:54:04;61.03;;;38.93;;
8319;SDS011;4197;42.130;24.746;2023-12-14T05:56:33;73.73;;;42.30;;
8319;SDS011;4197;42.130;24.746;2023-12-14T05:59:05;69.53;;;41.50;;
8319;SDS011;4197;42.130;24.746;2023-12-14T06:01:34;61.17;;;40.33;;
8319;SDS011;4197;42.130;24.746;2023-12-14T06:04:03;65.17;;;40.60;;
8319;SDS011;4197;42.130;24.746;2023-12-14T06:06:31;68.97;;;40.63;;
8319;SDS011;4197;42.130;24.746;2023-12-14T06:09:01;60.23;;;38.10;;
8319;SDS011;4197;42.130;24.746;2023-12-14T06:11:29;74.17;;;42.03;;
8319;SDS011;4197;42.130;24.746;2023-12-14T06:13:58;77.97;;;44.20;;
8319;SDS011;4197;42.130;24.746;2023-12-14T06:16:27;72.83;;;45.43;;
8319;SDS011;4197;42.130;24.746;2023-12-14T06:18:56;69.03;;;43.67;;
8319;SDS011;4197;42.130;24.746;2023-12-14T06:21:24;82.27;;;45.20;;
8319;SDS011;4197;42.130;24.746;2023-12-14T06:23:55;84.57;;;46.33;;
8319;SDS011;4197;42.130;24.746;2023-12-14T06:26:25;79.33;;;46.87;;
8319;SDS011;4197;42.130;24.746;2023-12-14T06:28:54;82.60;;;44.37;;
8319;SDS011;4197;42.130;24.746;2023-12-14T06:31:23;69.23;;;43.10;;
8319;SDS011;4197;42.130;24.746;2023-12-14T06:33:51;72.23;;;42.87;;
8319;SDS011;4197;42.130;24.746;2023-12-14T06:36:24;72.13;;;41.57;;
8319;SDS011;4197;42.130;24.746;2023-12-14T06:38:56;74.13;;;40.50;;
8319;SDS011;4197;42.130;24.746;2023-12-14T06:41:26;73.47;;;41.47;;
8319;SDS011;4197;42.130;24.746;2023-12-14T06:44:00;67.17;;;39.30;;
8319;SDS011;4197;42.130;24.746;2023-12-14T06:46:28;57.20;;;34.63;;
8319;SDS011;4197;42.130;24.746;2023-12-14T06:48:57;56.60;;;34.77;;
8319;SDS011;4197;42.130;24.746;2023-12-14T06:51:27;62.90;;;34.57;;
8319;SDS011;4197;42.130;24.746;2023-12-14T06:53:56;58.70;;;31.80;;
8319;SDS011;4197;42.130;24.746;2023-12-14T06:56:24;51.17;;;32.40;;
8319;SDS011;4197;42.130;24.746;2023-12-14T06:58:54;52.53;;;30.13;;
8319;SDS011;4197;42.130;24.746;2023-12-14T07:01:23;78.87;;;44.90;;
8319;SDS011;4197;42.130;24.746;2023-12-14T07:03:51;49.60;;;29.77;;
8319;SDS011;4197;42.130;24.746;2023-12-14T07:06:20;47.70;;;28.80;;
8319;SDS011;4197;42.130;24.746;2023-12-14T07:08:49;41.27;;;28.37;;
8319;SDS011;4197;42.130;24.746;2023-12-14T07:11:17;51.00;;;33.77;;
8319;SDS011;4197;42.130;24.746;2023-12-14T07:13:45;64.60;;;35.70;;
8319;SDS011;4197;42.130;24.746;2023-12-14T07:16:15;45.33;;;29.60;;
8319;SDS011;4197;42.130;24.746;2023-12-14T07:18:44;46.67;;;27.60;;
8319;SDS011;4197;42.130;24.746;2023-12-14T07:21:13;45.27;;;28.80;;
8319;SDS011;4197;42.130;24.746;2023-12-14T07:23:42;43.20;;;26.87;;
8319;SDS011;4197;42.130;24.746;2023-12-14T07:26:10;42.37;;;27.90;;
8319;SDS011;4197;42.130;24.746;2023-12-14T07:28:38;47.50;;;27.23;;
8319;SDS011;4197;42.130;24.746;2023-12-14T07:31:07;47.13;;;27.77;;
8319;SDS011;4197;42.130;24.746;2023-12-14T07:33:37;42.93;;;26.60;;
8319;SDS011;4197;42.130;24.746;2023-12-14T07:36:05;35.80;;;24.77;;
8319;SDS011;4197;42.130;24.746;2023-12-14T07:38:34;38.30;;;25.53;;
8319;SDS011;4197;42.130;24.746;2023-12-14T07:41:03;48.03;;;26.37;;
8319;SDS011;4197;42.130;24.746;2023-12-14T07:43:32;50.50;;;28.17;;
8319;SDS011;4197;42.130;24.746;2023-12-14T07:46:00;45.97;;;29.23;;
8319;SDS011;4197;42.130;24.746;2023-12-14T07:48:29;48.30;;;29.43;;
8319;SDS011;4197;42.130;24.746;2023-12-14T07:50:58;46.50;;;28.20;;
8319;SDS011;4197;42.130;24.746;2023-12-14T07:53:27;42.50;;;27.83;;
8319;SDS011;4197;42.130;24.746;2023-12-14T07:55:56;42.63;;;26.27;;
8319;SDS011;4197;42.130;24.746;2023-12-14T07:58:25;41.73;;;25.37;;
8319;SDS011;4197;42.130;24.746;2023-12-14T08:00:53;51.27;;;30.00;;
8319;SDS011;4197;42.130;24.746;2023-12-14T08:03:22;48.27;;;29.23;;
8319;SDS011;4197;42.130;24.746;2023-12-14T08:05:50;49.50;;;28.53;;
8319;SDS011;4197;42.130;24.746;2023-12-14T08:08:21;49.33;;;29.97;;
8319;SDS011;4197;42.130;24.746;2023-12-14T08:10:50;43.43;;;28.47;;
8319;SDS011;4197;42.130;24.746;2023-12-14T08:13:19;43.83;;;29.83;;
8319;SDS011;4197;42.130;24.746;2023-12-14T08:15:47;47.40;;;28.70;;
8319;SDS011;4197;42.130;24.746;2023-12-14T08:18:16;42.57;;;26.97;;
8319;SDS011;4197;42.130;24.746;2023-12-14T08:20:46;45.07;;;30.37;;
8319;SDS011;4197;42.130;24.746;2023-12-14T08:23:14;47.03;;;32.37;;
8319;SDS011;4197;42.130;24.746;2023-12-14T08:25:44;49.43;;;31.37;;
8319;SDS011;4197;42.130;24.746;2023-12-14T08:28:13;54.67;;;30.43;;
8319;SDS011;4197;42.130;24.746;2023-12-14T08:30:41;53.87;;;31.20;;
8319;SDS011;4197;42.130;24.746;2023-12-14T08:33:10;51.97;;;31.07;;
8319;SDS011;4197;42.130;24.746;2023-12-14T08:35:38;43.33;;;29.07;;
8319;SDS011;4197;42.130;24.746;2023-12-14T08:38:06;54.47;;;30.90;;
8319;SDS011;4197;42.130;24.746;2023-12-14T08:40:35;44.60;;;29.47;;
8319;SDS011;4197;42.130;24.746;2023-12-14T08:43:05;51.57;;;31.40;;
8319;SDS011;4197;42.130;24.746;2023-12-14T08:45:33;45.57;;;29.00;;
8319;SDS011;4197;42.130;24.746;2023-12-14T08:48:02;47.27;;;27.60;;
8319;SDS011;4197;42.130;24.746;2023-12-14T08:50:30;45.50;;;26.23;;
8319;SDS011;4197;42.130;24.746;2023-12-14T08:52:59;46.30;;;29.83;;
8319;SDS011;4197;42.130;24.746;2023-12-14T08:55:28;40.07;;;28.03;;
8319;SDS011;4197;42.130;24.746;2023-12-14T08:57:57;46.30;;;28.53;;
8319;SDS011;4197;42.130;24.746;2023-12-14T09:00:27;41.27;;;25.83;;
8319;SDS011;4197;42.130;24.746;2023-12-14T09:02:55;34.30;;;24.23;;
8319;SDS011;4197;42.130;24.746;2023-12-14T09:05:24;36.83;;;24.30;;
8319;SDS011;4197;42.130;24.746;2023-12-14T09:07:53;39.13;;;26.10;;
8319;SDS011;4197;42.130;24.746;2023-12-14T09:10:23;37.87;;;25.37;;
8319;SDS011;4197;42.130;24.746;2023-12-14T09:12:52;37.80;;;24.13;;
8319;SDS011;4197;42.130;24.746;2023-12-14T09:15:20;40.17;;;25.03;;
8319;SDS011;4197;42.130;24.746;2023-12-14T09:17:50;41.10;;;24.13;;
8319;SDS011;4197;42.130;24.746;2023-12-14T09:20:18;42.97;;;28.37;;
8319;SDS011;4197;42.130;24.746;2023-12-14T09:22:47;38.93;;;27.03;;
8319;SDS011;4197;42.130;24.746;2023-12-14T09:25:17;43.70;;;26.30;;
8319;SDS011;4197;42.130;24.746;2023-12-14T09:27:46;38.70;;;24.90;;
8319;SDS011;4197;42.130;24.746;2023-12-14T09:30:14;43.90;;;27.30;;
8319;SDS011;4197;42.130;24.746;2023-12-14T09:32:44;41.40;;;27.77;;
8319;SDS011;4197;42.130;24.746;2023-12-14T09:35:14;42.50;;;26.17;;
8319;SDS011;4197;42.130;24.746;2023-12-14T09:37:43;36.60;;;24.40;;
8319;SDS011;4197;42.130;24.746;2023-12-14T09:40:11;37.17;;;25.03;;
8319;SDS011;4197;42.130;24.746;2023-12-14T09:42:41;41.87;;;26.27;;
8319;SDS011;4197;42.130;24.746;2023-12-14T09:45:09;46.40;;;25.23;;
8319;SDS011;4197;42.130;24.746;2023-12-14T09:47:38;35.10;;;24.30;;
8319;SDS011;4197;42.130;24.746;2023-12-14T09:50:08;40.80;;;24.67;;
8319;SDS011;4197;42.130;24.746;2023-12-14T09:52:38;43.83;;;25.23;;
8319;SDS011;4197;42.130;24.746;2023-12-14T09:55:11;40.70;;;24.60;;
8319;SDS011;4197;42.130;24.746;2023-12-14T09:57:40;38.77;;;24.10;;
8319;SDS011;4197;42.130;24.746;2023-12-14T10:00:09;41.77;;;24.83;;
8319;SDS011;4197;42.130;24.746;2023-12-14T10:02:41;40.13;;;24.23;;
8319;SDS011;4197;42.130;24.746;2023-12-14T10:05:10;40.47;;;25.43;;
8319;SDS011;4197;42.130;24.746;2023-12-14T10:07:42;44.03;;;25.53;;
8319;SDS011;4197;42.130;24.746;2023-12-14T10:10:12;37.57;;;24.07;;
8319;SDS011;4197;42.130;24.746;2023-12-14T10:12:51;32.03;;;22.03;;
8319;SDS011;4197;42.130;24.746;2023-12-14T10:15:24;36.17;;;23.67;;
8319;SDS011;4197;42.130;24.746;2023-12-14T10:17:54;37.10;;;25.50;;
8319;SDS011;4197;42.130;24.746;2023-12-14T10:20:24;37.93;;;22.97;;
8319;SDS011;4197;42.130;24.746;2023-12-14T10:22:54;44.37;;;24.33;;
8319;SDS011;4197;42.130;24.746;2023-12-14T10:25:23;37.87;;;23.43;;
8319;SDS011;4197;42.130;24.746;2023-12-14T10:27:52;34.70;;;22.10;;
8319;SDS011;4197;42.130;24.746;2023-12-14T10:30:21;39.10;;;23.93;;
8319;SDS011;4197;42.130;24.746;2023-12-14T10:32:49;36.73;;;24.17;;
8319;SDS011;4197;42.130;24.746;2023-12-14T10:35:18;42.47;;;26.47;;
8319;SDS011;4197;42.130;24.746;2023-12-14T10:37:49;48.50;;;25.17;;
8319;SDS011;4197;42.130;24.746;2023-12-14T10:40:21;36.30;;;25.27;;
8319;SDS011;4197;42.130;24.746;2023-12-14T10:42:53;34.30;;;24.03;;
8319;SDS011;4197;42.130;24.746;2023-12-14T10:45:29;33.83;;;25.53;;
8319;SDS011;4197;42.130;24.746;2023-12-14T10:48:00;40.23;;;26.23;;
8319;SDS011;4197;42.130;24.746;2023-12-14T10:50:31;43.40;;;28.23;;
8319;SDS011;4197;42.130;24.746;2023-12-14T10:53:01;37.63;;;24.73;;
8319;SDS011;4197;42.130;24.746;2023-12-14T10:55:33;33.20;;;24.83;;
8319;SDS011;4197;42.130;24.746;2023-12-14T10:58:05;38.40;;;24.90;;
8319;SDS011;4197;42.130;24.746;2023-12-14T11:00:35;38.70;;;23.60;;
8319;SDS011;4197;42.130;24.746;2023-12-14T11:03:05;38.53;;;24.73;;
8319;SDS011;4197;42.130;24.746;2023-12-14T11:05:33;34.50;;;23.50;;
8319;SDS011;4197;42.130;24.746;2023-12-14T11:08:03;30.47;;;21.13;;
8319;SDS011;4197;42.130;24.746;2023-12-14T11:10:39;29.77;;;21.00;;
8319;SDS011;4197;42.130;24.746;2023-12-14T11:13:09;34.77;;;22.67;;
8319;SDS011;4197;42.130;24.746;2023-12-14T11:15:40;32.67;;;21.97;;
8319;SDS011;4197;42.130;24.746;2023-12-14T11:18:20;33.43;;;22.63;;
8319;SDS011;4197;42.130;24.746;2023-12-14T11:20:56;37.00;;;22.70;;
8319;SDS011;4197;42.130;24.746;2023-12-14T11:23:29;35.00;;;24.07;;
8319;SDS011;4197;42.130;24.746;2023-12-14T11:26:00;40.60;;;22.77;;
8319;SDS011;4197;42.130;24.746;2023-12-14T11:28:32;30.97;;;21.13;;
8319;SDS011;4197;42.130;24.746;2023-12-14T11:31:01;36.83;;;23.43;;
8319;SDS011;4197;42.130;24.746;2023-12-14T11:33:34;35.20;;;21.63;;
8319;SDS011;4197;42.130;24.746;2023-12-14T11:36:10;34.07;;;22.70;;
8319;SDS011;4197;42.130;24.746;2023-12-14T11:38:40;30.83;;;21.33;;
8319;SDS011;4197;42.130;24.746;2023-12-14T11:41:11;38.83;;;21.10;;
8319;SDS011;4197;42.130;24.746;2023-12-14T11:43:40;33.70;;;21.73;;
8319;SDS011;4197;42.130;24.746;2023-12-14T11:46:09;29.13;;;19.47;;
8319;SDS011;4197;42.130;24.746;2023-12-14T11:48:38;29.20;;;21.00;;
8319;SDS011;4197;42.130;24.746;2023-12-14T11:51:08;37.13;;;21.73;;
8319;SDS011;4197;42.130;24.746;2023-12-14T11:53:37;35.37;;;21.77;;
8319;SDS011;4197;42.130;24.746;2023-12-14T11:56:06;35.60;;;22.40;;
8319;SDS011;4197;42.130;24.746;2023-12-14T11:58:39;30.33;;;20.33;;
8319;SDS011;4197;42.130;24.746;2023-12-14T12:01:12;29.37;;;17.47;;
8319;SDS011;4197;42.130;24.746;2023-12-14T12:03:41;30.27;;;19.37;;
8319;SDS011;4197;42.130;24.746;2023-12-14T12:06:19;36.83;;;21.80;;
8319;SDS011;4197;42.130;24.746;2023-12-14T12:08:49;29.90;;;19.90;;
8319;SDS011;4197;42.130;24.746;2023-12-14T12:11:17;33.33;;;20.47;;
8319;SDS011;4197;42.130;24.746;2023-12-14T12:13:51;32.20;;;20.30;;
8319;SDS011;4197;42.130;24.746;2023-12-14T12:16:21;34.03;;;20.43;;
8319;SDS011;4197;42.130;24.746;2023-12-14T12:18:50;32.87;;;18.67;;
8319;SDS011;4197;42.130;24.746;2023-12-14T12:21:19;31.10;;;21.27;;
8319;SDS011;4197;42.130;24.746;2023-12-14T12:23:48;31.53;;;20.00;;
8319;SDS011;4197;42.130;24.746;2023-12-14T12:26:16;35.83;;;19.97;;
8319;SDS011;4197;42.130;24.746;2023-12-14T12:28:44;32.90;;;20.93;;
8319;SDS011;4197;42.130;24.746;2023-12-14T12:31:16;33.63;;;20.23;;
8319;SDS011;4197;42.130;24.746;2023-12-14T12:33:45;33.97;;;21.07;;
8319;SDS011;4197;42.130;24.746;2023-12-14T12:36:13;34.20;;;22.60;;
8319;SDS011;4197;42.130;24.746;2023-12-14T12:38:42;30.73;;;20.43;;
8319;SDS011;4197;42.130;24.746;2023-12-14T12:41:10;30.40;;;19.97;;
8319;SDS011;4197;42.130;24.746;2023-12-14T12:43:39;26.27;;;17.23;;
8319;SDS011;4197;42.130;24.746;2023-12-14T12:46:07;26.57;;;16.70;;
8319;SDS011;4197;42.130;24.746;2023-12-14T12:48:37;29.03;;;17.83;;
8319;SDS011;4197;42.130;24.746;2023-12-14T12:51:06;30.27;;;18.73;;
8319;SDS011;4197;42.130;24.746;2023-12-14T12:53:34;27.37;;;18.63;;
8319;SDS011;4197;42.130;24.746;2023-12-14T12:56:03;31.77;;;17.90;;
8319;SDS011;4197;42.130;24.746;2023-12-14T12:58:32;27.57;;;16.73;;
8319;SDS011;4197;42.130;24.746;2023-12-14T13:01:00;29.47;;;16.87;;
8319;SDS011;4197;42.130;24.746;2023-12-14T13:03:28;24.63;;;16.57;;
8319;SDS011;4197;42.130;24.746;2023-12-14T13:05:58;28.30;;;17.77;;
8319;SDS011;4197;42.130;24.746;2023-12-14T13:08:26;29.27;;;17.87;;
8319;SDS011;4197;42.130;24.746;2023-12-14T13:10:54;30.70;;;19.30;;
8319;SDS011;4197;42.130;24.746;2023-12-14T13:13:23;45.17;;;24.00;;
8319;SDS011;4197;42.130;24.746;2023-12-14T13:15:52;34.43;;;21.53;;
8319;SDS011;4197;42.130;24.746;2023-12-14T13:18:20;32.83;;;20.00;;
8319;SDS011;4197;42.130;24.746;2023-12-14T13:20:48;30.83;;;17.43;;
8319;SDS011;4197;42.130;24.746;2023-12-14T13:23:18;28.67;;;17.90;;
8319;SDS011;4197;42.130;24.746;2023-12-14T13:25:47;30.10;;;17.73;;
8319;SDS011;4197;42.130;24.746;2023-12-14T13:28:15;32.33;;;18.73;;
8319;SDS011;4197;42.130;24.746;2023-12-14T13:30:44;29.93;;;18.87;;
8319;SDS011;4197;42.130;24.746;2023-12-14T13:33:12;30.97;;;19.73;;
8319;SDS011;4197;42.130;24.746;2023-12-14T13:35:41;31.77;;;18.43;;
8319;SDS011;4197;42.130;24.746;2023-12-14T13:38:10;29.60;;;19.37;;
8319;SDS011;4197;42.130;24.746;2023-12-14T13:40:40;29.33;;;19.40;;
8319;SDS011;4197;42.130;24.746;2023-12-14T13:43:09;40.50;;;20.80;;
8319;SDS011;4197;42.130;24.746;2023-12-14T13:45:44;34.83;;;21.33;;
8319;SDS011;4197;42.130;24.746;2023-12-14T13:48:27;38.30;;;22.17;;
8319;SDS011;4197;42.130;24.746;2023-12-14T13:50:58;37.23;;;24.03;;
8319;SDS011;4197;42.130;24.746;2023-12-14T13:53:31;52.63;;;28.90;;
8319;SDS011;4197;42.130;24.746;2023-12-14T13:56:02;45.53;;;25.10;;
8319;SDS011;4197;42.130;24.746;2023-12-14T13:58:34;46.87;;;26.90;;
8319;SDS011;4197;42.130;24.746;2023-12-14T14:01:05;41.80;;;25.50;;
8319;SDS011;4197;42.130;24.746;2023-12-14T14:03:34;45.30;;;26.30;;
8319;SDS011;4197;42.130;24.746;2023-12-14T14:06:04;38.73;;;24.97;;
8319;SDS011;4197;42.130;24.746;2023-12-14T14:08:33;41.70;;;26.27;;
8319;SDS011;4197;42.130;24.746;2023-12-14T14:11:04;40.07;;;25.27;;
8319;SDS011;4197;42.130;24.746;2023-12-14T14:13:36;43.10;;;26.13;;
8319;SDS011;4197;42.130;24.746;2023-12-14T14:16:05;43.70;;;26.00;;
8319;SDS011;4197;42.130;24.746;2023-12-14T14:18:34;46.07;;;26.93;;
8319;SDS011;4197;42.130;24.746;2023-12-14T14:21:03;50.60;;;29.13;;
8319;SDS011;4197;42.130;24.746;2023-12-14T14:23:37;41.10;;;26.47;;
8319;SDS011;4197;42.130;24.746;2023-12-14T14:26:07;47.80;;;27.10;;
8319;SDS011;4197;42.130;24.746;2023-12-14T14:28:35;46.80;;;28.57;;
8319;SDS011;4197;42.130;24.746;2023-12-14T14:31:04;48.47;;;30.37;;
8319;SDS011;4197;42.130;24.746;2023-12-14T14:33:32;51.23;;;29.63;;
8319;SDS011;4197;42.130;24.746;2023-12-14T14:36:00;48.40;;;30.10;;
8319;SDS011;4197;42.130;24.746;2023-12-14T14:38:32;46.50;;;29.97;;
8319;SDS011;4197;42.130;24.746;2023-12-14T14:41:00;47.17;;;29.57;;
8319;SDS011;4197;42.130;24.746;2023-12-14T14:43:32;48.23;;;29.20;;
8319;SDS011;4197;42.130;24.746;2023-12-14T14:46:01;52.63;;;29.27;;